Oglasa — ITMG — position and weather

sailwx.info

Track history (hours):
 
Tides and Currents Weather Stations Pressure Air Temp Water Temp Dewpoint Dewpoint Depression Visibility Wind Speed Wind Dir Waves Ship Positions

Oglasa

Last reported at 2017-Mar-24 16:33 UTC. Time now 2017-Mar-25 00:07 UTC.
Position N 42°49' E 010°21'.

Length 91 m; draft 3.8 m.

Type: Ship. MMSI: 247046800.

Date/timePositionNaut miles runAvg speedWind from/ knotsBaromVisibWave heightAir tempDewpointWater temp
2017-Mar-24 16:33N 42°49' E 010°21'  
2017-Mar-20 13:22N 42°50' E 010°21'  
2017-Mar-17 04:18N 42°51' E 010°22'3 0.3
2017-Mar-16 19:17N 42°49' E 010°19'0 0.0
2017-Mar-16 17:11N 42°49' E 010°19'1 2.0
2017-Mar-16 16:34N 42°49' E 010°21'5 2.6
2017-Mar-16 14:33N 42°53' E 010°26'6 6.4
2017-Mar-16 13:32N 42°49' E 010°19'13 6.3
2017-Mar-16 11:30N 42°56' E 010°34'6 1.6
2017-Mar-16 07:33N 42°53' E 010°26'7 6.5
2017-Mar-16 06:31N 42°49' E 010°19'7 3.5
2017-Mar-16 04:33N 42°53' E 010°26'5 0.4
2017-Mar-15 16:33N 42°50' E 010°21'11 7.2
2017-Mar-15 15:05N 42°56' E 010°33'611.5
2017-Mar-15 14:33N 42°53' E 010°26'6 6.1
2017-Mar-15 13:30N 42°49' E 010°19'1313.3
2017-Mar-15 12:33N 42°56' E 010°33'0 0.4
2017-Mar-15 11:32N 42°56' E 010°34'7 3.4
2017-Mar-15 09:34N 42°53' E 010°26'6 4.2
2017-Mar-15 08:04N 42°56' E 010°33'611.5
2017-Mar-15 07:34N 42°53' E 010°26'7 6.5
2017-Mar-15 06:31N 42°49' E 010°19'12 8.4
2017-Mar-15 05:03N 42°56' E 010°33'612.1
2017-Mar-15 04:34N 42°53' E 010°26'7 1.3
2017-Mar-14 23:27N 42°49' E 010°19'  
Track history (hours):
 
Tides and Currents Weather Stations Pressure Air Temp Water Temp Dewpoint Dewpoint Depression Visibility Wind Speed Wind Dir Waves Ship Positions

Oglasa

Last reported at 2017-Mar-24 16:33 UTC. Time now 2017-Mar-25 00:07 UTC.
Position N 42°49' E 010°21'.

Length 91 m; draft 3.8 m.

Type: Ship. MMSI: 247046800.

Date/timePositionNaut miles runAvg speedWind from/ knotsBaromVisibWave heightAir tempDewpointWater temp
2017-Mar-24 16:33N 42°49' E 010°21'  
2017-Mar-20 13:22N 42°50' E 010°21'  
2017-Mar-17 04:18N 42°51' E 010°22'3 0.3
2017-Mar-16 19:17N 42°49' E 010°19'0 0.0
2017-Mar-16 17:11N 42°49' E 010°19'1 2.0
2017-Mar-16 16:34N 42°49' E 010°21'5 2.6
2017-Mar-16 14:33N 42°53' E 010°26'6 6.4
2017-Mar-16 13:32N 42°49' E 010°19'13 6.3
2017-Mar-16 11:30N 42°56' E 010°34'6 1.6
2017-Mar-16 07:33N 42°53' E 010°26'7 6.5
2017-Mar-16 06:31N 42°49' E 010°19'7 3.5
2017-Mar-16 04:33N 42°53' E 010°26'5 0.4
2017-Mar-15 16:33N 42°50' E 010°21'11 7.2
2017-Mar-15 15:05N 42°56' E 010°33'611.5
2017-Mar-15 14:33N 42°53' E 010°26'6 6.1
2017-Mar-15 13:30N 42°49' E 010°19'1313.3
2017-Mar-15 12:33N 42°56' E 010°33'0 0.4
2017-Mar-15 11:32N 42°56' E 010°34'7 3.4
2017-Mar-15 09:34N 42°53' E 010°26'6 4.2
2017-Mar-15 08:04N 42°56' E 010°33'611.5
2017-Mar-15 07:34N 42°53' E 010°26'7 6.5
2017-Mar-15 06:31N 42°49' E 010°19'12 8.4
2017-Mar-15 05:03N 42°56' E 010°33'612.1
2017-Mar-15 04:34N 42°53' E 010°26'7 1.3
2017-Mar-14 23:27N 42°49' E 010°19'  

Dump ship's entire track history